createdAt,value
2019-04-28T00:00:56.972Z,3.80
2019-04-28T00:03:24.031Z,4.67
2019-04-28T00:05:51.583Z,4.27
2019-04-28T00:08:20.357Z,4.23
2019-04-28T00:10:47.688Z,4.23
2019-04-28T00:13:14.835Z,4.20
2019-04-28T00:15:41.991Z,5.13
2019-04-28T00:18:09.123Z,4.53
2019-04-28T00:21:11.003Z,4.20
2019-04-28T00:23:56.595Z,4.20
2019-04-28T00:26:34.751Z,3.67
2019-04-28T00:29:01.896Z,4.27
2019-04-28T00:31:28.951Z,3.97
2019-04-28T00:33:55.999Z,3.87
2019-04-28T00:36:23.051Z,4.10
2019-04-28T00:38:51.454Z,4.17
2019-04-28T00:41:18.743Z,3.90
2019-04-28T00:43:45.891Z,4.27
2019-04-28T00:46:14.459Z,4.00
2019-04-28T00:48:41.498Z,3.87
2019-04-28T00:51:08.540Z,4.40
2019-04-28T00:53:35.676Z,4.33
2019-04-28T00:56:02.952Z,4.43
2019-04-28T00:58:31.890Z,4.87
2019-04-28T01:01:02.563Z,4.10
2019-04-28T01:03:29.601Z,4.20
2019-04-28T01:05:56.656Z,4.10
2019-04-28T01:08:23.908Z,4.13
2019-04-28T01:10:51.056Z,3.90
2019-04-28T01:13:19.324Z,4.40
2019-04-28T01:15:57.079Z,4.13
2019-04-28T01:18:40.492Z,4.07
2019-04-28T01:21:07.773Z,3.90
2019-04-28T01:23:34.819Z,4.03
2019-04-28T01:26:01.959Z,4.67
2019-04-28T01:28:29.758Z,3.83
2019-04-28T01:31:13.434Z,4.30
2019-04-28T01:34:03.025Z,4.07
2019-04-28T01:36:30.671Z,3.93
2019-04-28T01:38:57.733Z,4.07
2019-04-28T01:41:24.900Z,4.00
2019-04-28T01:43:52.381Z,3.80
2019-04-28T01:46:19.938Z,4.10
2019-04-28T01:48:47.269Z,4.10
2019-04-28T01:51:14.416Z,3.63
2019-04-28T01:53:41.472Z,4.17
2019-04-28T01:56:10.480Z,3.87
2019-04-28T01:58:37.577Z,4.20
2019-04-28T02:01:04.931Z,3.70
2019-04-28T02:03:31.987Z,3.60
2019-04-28T02:06:00.189Z,4.27
2019-04-28T02:08:27.928Z,4.60
2019-04-28T02:10:55.011Z,4.60
2019-04-28T02:13:22.083Z,4.57
2019-04-28T02:15:50.106Z,5.13
2019-04-28T02:18:17.600Z,5.40
2019-04-28T02:20:49.348Z,4.90
2019-04-28T02:23:22.233Z,4.90
2019-04-28T02:25:49.768Z,5.73
2019-04-28T02:28:16.928Z,4.93
2019-04-28T02:30:49.386Z,5.17
2019-04-28T02:33:12.955Z,5.60
2019-04-28T02:35:41.865Z,5.03
2019-04-28T02:38:11.377Z,5.80
2019-04-28T02:40:40.623Z,5.73
2019-04-28T02:43:07.600Z,5.13
2019-04-28T02:45:35.169Z,6.10
2019-04-28T02:48:04.436Z,5.63
2019-04-28T02:50:41.199Z,5.67
2019-04-28T02:53:22.873Z,5.53
2019-04-28T02:55:51.419Z,6.07
2019-04-28T02:58:22.092Z,5.90
2019-04-28T03:01:02.755Z,5.33
2019-04-28T03:03:16.600Z,5.50
2019-04-28T03:05:43.756Z,6.07
2019-04-28T03:08:11.253Z,6.20
2019-04-28T03:10:41.088Z,6.03
2019-04-28T03:13:10.798Z,4.73
2019-04-28T03:15:37.304Z,5.23
2019-04-28T03:18:04.353Z,4.10
2019-04-28T03:20:32.133Z,4.30
2019-04-28T03:23:00.975Z,3.80
2019-04-28T03:25:43.044Z,3.77
2019-04-28T03:28:16.744Z,3.53
2019-04-28T03:31:33.612Z,2.87
2019-04-28T03:33:35.913Z,3.40
2019-04-28T03:36:03.657Z,2.83
2019-04-28T03:38:31.054Z,2.50
2019-04-28T03:41:00.783Z,2.60
2019-04-28T03:43:27.272Z,2.90
2019-04-28T03:46:02.786Z,2.80
2019-04-28T03:48:30.831Z,2.67
2019-04-28T03:50:57.753Z,2.77
2019-04-28T03:53:24.827Z,3.03
2019-04-28T03:55:51.925Z,2.60
2019-04-28T03:58:23.766Z,2.97
2019-04-28T04:00:50.433Z,3.10
2019-04-28T04:03:16.997Z,3.57
2019-04-28T04:05:44.064Z,2.83
2019-04-28T04:08:11.210Z,3.10
2019-04-28T04:10:56.240Z,3.10
2019-04-28T04:13:33.637Z,3.50
2019-04-28T04:16:40.347Z,3.03
2019-04-28T04:19:10.619Z,3.30
2019-04-28T04:21:40.724Z,3.60
2019-04-28T04:24:11.172Z,3.50
2019-04-28T04:26:40.907Z,4.13
2019-04-28T04:29:11.503Z,3.50
2019-04-28T04:31:41.381Z,3.83
2019-04-28T04:34:10.828Z,3.63
2019-04-28T04:36:41.743Z,4.37
2019-04-28T04:39:10.999Z,3.70
2019-04-28T04:41:43.028Z,4.13
2019-04-28T04:44:07.083Z,4.00
2019-04-28T04:46:34.136Z,4.10
2019-04-28T04:49:02.308Z,4.27
2019-04-28T04:51:30.644Z,3.80
2019-04-28T04:54:00.696Z,4.00
2019-04-28T04:56:27.148Z,3.67
2019-04-28T04:58:54.303Z,4.27
2019-04-28T05:01:40.717Z,3.97
2019-04-28T05:04:27.309Z,4.00
2019-04-28T05:06:54.371Z,3.73
2019-04-28T05:09:21.544Z,4.07
2019-04-28T05:11:49.966Z,3.83
2019-04-28T05:14:19.645Z,4.30
2019-04-28T05:16:46.712Z,4.63
2019-04-28T05:19:13.776Z,4.20
2019-04-28T05:21:40.823Z,4.37
2019-04-28T05:24:16.082Z,4.70
2019-04-28T05:26:47.736Z,4.43
2019-04-28T05:29:13.109Z,3.90
2019-04-28T05:31:40.277Z,4.60
2019-04-28T05:34:08.096Z,4.13
2019-04-28T05:36:40.981Z,3.90
2019-04-28T05:39:05.859Z,4.17
2019-04-28T05:41:34.820Z,4.33
2019-04-28T05:44:01.883Z,4.43
2019-04-28T05:46:30.033Z,4.57
2019-04-28T05:49:04.899Z,4.47
2019-04-28T05:51:33.531Z,4.27
2019-04-28T05:54:10.052Z,5.00
2019-04-28T05:56:45.224Z,4.50
2019-04-28T05:59:16.373Z,4.90
2019-04-28T06:02:00.580Z,4.57
2019-04-28T06:04:30.285Z,4.67
2019-04-28T06:07:06.259Z,4.93
2019-04-28T06:09:39.815Z,4.63
2019-04-28T06:12:10.302Z,5.47
2019-04-28T06:14:37.675Z,5.23
2019-04-28T06:17:04.730Z,5.27
2019-04-28T06:19:31.788Z,5.63
2019-04-28T06:21:58.845Z,5.27
2019-04-28T06:24:25.916Z,5.10
2019-04-28T06:26:52.972Z,5.40
2019-04-28T06:29:20.040Z,5.57
2019-04-28T06:31:48.490Z,5.73
2019-04-28T06:34:15.540Z,5.70
2019-04-28T06:36:42.692Z,5.57
2019-04-28T06:39:10.453Z,5.47
2019-04-28T06:41:37.516Z,5.40
2019-04-28T06:44:04.924Z,6.53
2019-04-28T06:46:32.082Z,6.17
2019-04-28T06:48:59.135Z,6.40
2019-04-28T06:51:26.297Z,6.37
2019-04-28T06:53:53.463Z,6.50
2019-04-28T06:56:20.662Z,6.10
2019-04-28T06:58:58.360Z,6.20
2019-04-28T07:01:16.705Z,6.20
2019-04-28T07:03:43.790Z,5.70
2019-04-28T07:06:10.924Z,6.10
2019-04-28T07:08:38.235Z,5.97
2019-04-28T07:11:05.400Z,5.33
2019-04-28T07:13:32.468Z,5.30
2019-04-28T07:15:59.623Z,5.00
2019-04-28T07:18:28.172Z,5.43
2019-04-28T07:21:07.428Z,5.30
2019-04-28T07:23:36.261Z,5.23
2019-04-28T07:26:04.000Z,4.63
2019-04-28T07:28:31.252Z,4.47
2019-04-28T07:30:59.976Z,4.37
2019-04-28T07:33:35.806Z,4.90
2019-04-28T07:35:56.104Z,5.40
2019-04-28T07:38:23.560Z,4.60
2019-04-28T07:40:50.623Z,4.80
2019-04-28T07:43:17.672Z,4.33
2019-04-28T07:45:44.717Z,4.00
2019-04-28T07:48:12.708Z,4.83
2019-04-28T07:50:39.761Z,5.50
2019-04-28T07:53:15.795Z,5.83
2019-04-28T07:55:42.965Z,5.80
2019-04-28T07:58:10.024Z,5.50
2019-04-28T08:00:37.181Z,4.77
2019-04-28T08:03:04.443Z,5.30
2019-04-28T08:05:31.508Z,5.00
2019-04-28T08:07:58.667Z,4.93
2019-04-28T08:10:25.726Z,4.47
2019-04-28T08:12:53.237Z,5.00
2019-04-28T08:15:20.428Z,4.70
2019-04-28T08:17:47.547Z,4.17
2019-04-28T08:20:14.801Z,4.80
2019-04-28T08:22:41.961Z,4.77
2019-04-28T08:25:10.821Z,4.60
2019-04-28T08:27:37.896Z,4.43
2019-04-28T08:30:07.147Z,4.67
2019-04-28T08:32:53.996Z,4.40
2019-04-28T08:35:21.097Z,4.80
2019-04-28T08:37:48.143Z,5.00
2019-04-28T08:40:15.300Z,5.60
2019-04-28T08:42:42.353Z,5.00
2019-04-28T08:45:09.715Z,4.33
2019-04-28T08:47:36.888Z,4.47
2019-04-28T08:50:04.593Z,4.97
2019-04-28T08:52:31.759Z,5.40
2019-04-28T08:54:58.828Z,5.90
2019-04-28T08:57:26.138Z,5.67
2019-04-28T08:59:53.291Z,5.03
2019-04-28T09:02:20.356Z,4.97
2019-04-28T09:04:47.421Z,4.87
2019-04-28T09:07:14.596Z,5.07
2019-04-28T09:09:41.639Z,4.80
2019-04-28T09:12:08.704Z,4.67
2019-04-28T09:14:35.760Z,4.83
2019-04-28T09:17:02.817Z,6.10
2019-04-28T09:19:29.971Z,4.57
2019-04-28T09:21:57.032Z,5.80
2019-04-28T09:24:24.100Z,5.60
2019-04-28T09:26:51.180Z,5.90
2019-04-28T09:29:18.330Z,5.00
2019-04-28T09:31:45.495Z,3.83
2019-04-28T09:34:12.559Z,3.33
2019-04-28T09:36:39.615Z,3.70
2019-04-28T09:39:08.488Z,2.87
2019-04-28T09:41:38.095Z,2.80
2019-04-28T09:44:14.195Z,3.33
2019-04-28T09:46:41.807Z,2.93
2019-04-28T09:49:08.873Z,2.93
2019-04-28T09:51:36.249Z,2.60
2019-04-28T09:54:03.783Z,2.77
2019-04-28T09:56:30.844Z,3.20
2019-04-28T09:58:57.912Z,3.10
2019-04-28T10:01:25.072Z,3.27
2019-04-28T10:03:52.140Z,3.17
2019-04-28T10:06:19.380Z,2.93
2019-04-28T10:08:47.451Z,4.00
2019-04-28T10:11:14.518Z,4.87
2019-04-28T10:13:41.908Z,4.30
2019-04-28T10:16:09.440Z,2.90
2019-04-28T10:18:36.487Z,2.70
2019-04-28T10:21:03.764Z,3.60
2019-04-28T10:23:30.829Z,3.33
2019-04-28T10:25:57.875Z,2.83
2019-04-28T10:28:25.128Z,2.90
2019-04-28T10:30:52.288Z,2.57
2019-04-28T10:33:19.455Z,2.47
2019-04-28T10:35:46.609Z,2.80
2019-04-28T10:38:13.687Z,2.73
2019-04-28T10:41:03.388Z,2.70
2019-04-28T10:43:30.559Z,3.03
2019-04-28T10:45:57.705Z,3.10
2019-04-28T10:48:24.765Z,3.43
2019-04-28T10:50:51.827Z,3.10
2019-04-28T10:53:19.330Z,3.03
2019-04-28T10:55:46.375Z,3.07
2019-04-28T10:58:13.533Z,3.53
2019-04-28T11:00:41.202Z,4.10
2019-04-28T11:03:08.357Z,3.93
2019-04-28T11:05:45.153Z,5.10
2019-04-28T11:08:47.080Z,4.63
2019-04-28T11:11:21.367Z,5.80
2019-04-28T11:13:48.636Z,6.20
2019-04-28T11:16:18.000Z,6.17
2019-04-28T11:18:45.299Z,6.30
2019-04-28T11:21:12.553Z,5.23
2019-04-28T11:23:39.819Z,5.90
2019-04-28T11:26:07.083Z,5.97
2019-04-28T11:28:34.156Z,6.03
2019-04-28T11:31:01.381Z,5.07
2019-04-28T11:33:38.028Z,5.70
2019-04-28T11:36:05.083Z,5.00
2019-04-28T11:38:32.243Z,4.80
2019-04-28T11:40:59.295Z,4.17
2019-04-28T11:43:26.575Z,4.30
2019-04-28T11:45:53.840Z,4.30
2019-04-28T11:48:20.899Z,4.30
2019-04-28T11:50:47.972Z,4.33
2019-04-28T11:53:15.235Z,4.50
2019-04-28T11:55:42.403Z,5.13
2019-04-28T11:58:10.060Z,5.03
2019-04-28T12:00:37.214Z,5.00
2019-04-28T12:03:04.485Z,4.67
2019-04-28T12:05:40.579Z,5.10
2019-04-28T12:08:07.701Z,4.23
2019-04-28T12:10:39.463Z,4.03
2019-04-28T12:13:20.062Z,4.60
2019-04-28T12:16:02.799Z,4.40
2019-04-28T12:18:48.195Z,4.57
2019-04-28T12:21:15.349Z,3.80
2019-04-28T12:23:43.607Z,4.30
2019-04-28T12:26:10.769Z,3.87
2019-04-28T12:28:37.831Z,4.00
2019-04-28T12:31:04.898Z,4.10
2019-04-28T12:33:32.968Z,4.17
2019-04-28T12:36:00.131Z,4.90
2019-04-28T12:38:27.287Z,4.40
2019-04-28T12:40:54.359Z,4.87
2019-04-28T12:43:21.457Z,3.80
2019-04-28T12:45:48.963Z,4.20
2019-04-28T12:48:16.023Z,3.93
2019-04-28T12:50:49.284Z,4.13
2019-04-28T12:53:16.691Z,4.47
2019-04-28T12:55:44.332Z,5.17
2019-04-28T12:58:11.403Z,4.73
2019-04-28T13:00:47.996Z,5.03
2019-04-28T13:03:34.815Z,3.60
2019-04-28T13:06:05.848Z,2.60
2019-04-28T13:08:32.480Z,3.07
2019-04-28T13:10:59.770Z,4.23
2019-04-28T13:13:26.847Z,4.70
2019-04-28T13:15:54.035Z,3.63
2019-04-28T13:18:21.088Z,3.33
2019-04-28T13:20:48.151Z,2.83
2019-04-28T13:23:15.208Z,3.60
2019-04-28T13:25:42.689Z,4.07
2019-04-28T13:28:10.155Z,3.20
2019-04-28T13:30:37.213Z,3.40
2019-04-28T13:33:04.475Z,3.27
2019-04-28T13:35:32.156Z,3.37
2019-04-28T13:37:59.309Z,3.63
2019-04-28T13:40:29.974Z,3.10
2019-04-28T13:42:57.140Z,3.40
2019-04-28T13:45:24.484Z,3.97
2019-04-28T13:47:51.576Z,2.53
2019-04-28T13:50:31.279Z,2.30
2019-04-28T13:52:58.362Z,1.80
2019-04-28T13:55:48.025Z,1.60
2019-04-28T13:58:16.880Z,1.37
2019-04-28T14:01:06.124Z,1.20
2019-04-28T14:03:59.288Z,1.33
2019-04-28T14:06:28.592Z,1.40
2019-04-28T14:08:55.633Z,1.73
2019-04-28T14:11:22.848Z,1.50
2019-04-28T14:13:50.013Z,1.80
2019-04-28T14:16:17.060Z,1.80
2019-04-28T14:18:44.331Z,2.00
2019-04-28T14:21:11.415Z,2.00
2019-04-28T14:23:38.502Z,1.97
2019-04-28T14:26:05.572Z,2.30
2019-04-28T14:28:32.634Z,2.07
2019-04-28T14:30:59.695Z,1.97
2019-04-28T14:33:26.928Z,2.20
2019-04-28T14:35:54.074Z,2.03
2019-04-28T14:38:21.524Z,2.27
2019-04-28T14:40:48.596Z,2.77
2019-04-28T14:43:15.988Z,2.33
2019-04-28T14:45:43.220Z,3.00
2019-04-28T14:48:10.284Z,2.40
2019-04-28T14:50:42.047Z,2.63
2019-04-28T14:53:09.196Z,2.63
2019-04-28T14:55:36.525Z,2.77
2019-04-28T14:58:03.728Z,2.70
2019-04-28T15:00:36.787Z,2.80
2019-04-28T15:03:06.956Z,2.87
2019-04-28T15:05:55.929Z,2.73
2019-04-28T15:08:33.530Z,3.40
2019-04-28T15:11:35.177Z,3.30
2019-04-28T15:14:02.636Z,3.20
2019-04-28T15:16:30.139Z,3.03
2019-04-28T15:18:58.238Z,3.00
2019-04-28T15:21:25.367Z,3.37
2019-04-28T15:23:52.448Z,2.70
2019-04-28T15:26:19.522Z,3.23
2019-04-28T15:28:46.563Z,3.07
2019-04-28T15:31:13.832Z,3.50
2019-04-28T15:33:40.920Z,3.60
2019-04-28T15:36:08.087Z,3.43
2019-04-28T15:38:35.256Z,3.07
2019-04-28T15:41:02.331Z,3.20
2019-04-28T15:43:29.403Z,3.20
2019-04-28T15:45:56.471Z,3.03
2019-04-28T15:48:23.553Z,3.20
2019-04-28T15:50:50.612Z,2.43
2019-04-28T15:53:17.790Z,2.60
2019-04-28T15:55:52.068Z,2.77
2019-04-28T15:58:28.587Z,2.60
2019-04-28T16:00:55.917Z,2.10
2019-04-28T16:03:23.007Z,2.50
2019-04-28T16:05:50.087Z,2.47
2019-04-28T16:08:17.140Z,2.33
2019-04-28T16:10:44.290Z,2.30
2019-04-28T16:13:11.323Z,2.20
2019-04-28T16:15:38.388Z,2.27
2019-04-28T16:18:05.554Z,2.40
2019-04-28T16:20:32.616Z,2.27
2019-04-28T16:22:59.686Z,2.43
2019-04-28T16:25:26.753Z,2.20
2019-04-28T16:27:53.820Z,2.37
2019-04-28T16:30:23.200Z,2.40
2019-04-28T16:32:50.875Z,2.63
2019-04-28T16:35:18.943Z,2.20
2019-04-28T16:37:46.003Z,2.30
2019-04-28T16:40:13.363Z,1.97
2019-04-28T16:43:00.723Z,1.90
2019-04-28T16:45:29.796Z,1.80
2019-04-28T16:47:57.122Z,2.17
2019-04-28T16:50:24.394Z,2.17
2019-04-28T16:52:51.453Z,2.30
2019-04-28T16:55:30.856Z,2.10
2019-04-28T16:58:23.534Z,2.00
2019-04-28T17:01:10.317Z,2.00
2019-04-28T17:03:37.783Z,1.93
2019-04-28T17:06:04.945Z,1.80
2019-04-28T17:08:32.020Z,2.03
2019-04-28T17:10:59.319Z,2.23
2019-04-28T17:13:26.389Z,2.77
2019-04-28T17:15:53.532Z,3.10
2019-04-28T17:18:21.601Z,2.83
2019-04-28T17:20:48.668Z,3.03
2019-04-28T17:23:16.731Z,2.50
2019-04-28T17:25:43.792Z,2.63
2019-04-28T17:28:10.931Z,2.87
2019-04-28T17:30:38.200Z,2.40
2019-04-28T17:33:05.604Z,2.63
2019-04-28T17:35:32.885Z,2.40
2019-04-28T17:38:06.328Z,2.67
2019-04-28T17:40:29.743Z,2.43
2019-04-28T17:42:56.904Z,2.40
2019-04-28T17:45:24.541Z,2.87
2019-04-28T17:47:53.752Z,2.70
2019-04-28T17:50:20.904Z,2.63
2019-04-28T17:52:48.316Z,2.50
2019-04-28T17:55:15.356Z,3.17
2019-04-28T17:57:42.434Z,3.27
2019-04-28T18:00:26.774Z,3.30
2019-04-28T18:03:09.452Z,3.20
2019-04-28T18:05:43.893Z,3.10
2019-04-28T18:08:20.821Z,3.13
2019-04-28T18:10:40.148Z,3.37
2019-04-28T18:13:07.403Z,3.20
2019-04-28T18:15:52.411Z,3.10
2019-04-28T18:18:39.289Z,3.23
2019-04-28T18:21:06.553Z,3.60
2019-04-28T18:23:34.839Z,3.53
2019-04-28T18:26:02.007Z,4.00
2019-04-28T18:28:29.060Z,4.30
2019-04-28T18:31:18.931Z,4.27
2019-04-28T18:34:04.222Z,4.40
2019-04-28T18:36:41.172Z,4.67
2019-04-28T18:39:43.417Z,4.70
2019-04-28T18:42:20.755Z,5.10
2019-04-28T18:44:47.807Z,5.70
2019-04-28T18:47:14.871Z,4.67
2019-04-28T18:49:41.928Z,5.27
2019-04-28T18:52:08.992Z,5.33
2019-04-28T18:54:36.072Z,5.70
2019-04-28T18:57:03.353Z,5.83
2019-04-28T18:59:30.941Z,5.93
2019-04-28T19:02:15.888Z,5.87
2019-04-28T19:04:42.953Z,6.20
2019-04-28T19:07:12.831Z,6.40
2019-04-28T19:09:47.046Z,6.33
2019-04-28T19:12:36.605Z,5.90
2019-04-28T19:15:22.554Z,6.47
2019-04-28T19:17:57.111Z,6.80
2019-04-28T19:20:24.173Z,6.17
2019-04-28T19:22:51.224Z,6.40
2019-04-28T19:25:20.695Z,6.87
2019-04-28T19:27:47.851Z,6.40
2019-04-28T19:30:18.498Z,6.80
2019-04-28T19:32:46.257Z,6.63
2019-04-28T19:35:13.444Z,6.43
2019-04-28T19:37:42.498Z,7.20
2019-04-28T19:40:09.860Z,6.77
2019-04-28T19:42:37.047Z,7.63
2019-04-28T19:45:05.877Z,8.40
2019-04-28T19:47:32.959Z,8.90
2019-04-28T19:50:00.019Z,8.97
2019-04-28T19:52:27.183Z,7.17
2019-04-28T19:55:08.479Z,7.80
2019-04-28T19:57:41.792Z,7.57
2019-04-28T20:00:19.260Z,7.83
2019-04-28T20:02:46.748Z,7.83
2019-04-28T20:05:14.078Z,7.90
2019-04-28T20:07:42.316Z,8.63
2019-04-28T20:10:09.516Z,8.80
2019-04-28T20:12:36.575Z,8.83
2019-04-28T20:15:03.960Z,8.50
2019-04-28T20:17:31.016Z,9.17
2019-04-28T20:19:58.185Z,8.77
2019-04-28T20:22:25.236Z,8.93
2019-04-28T20:24:52.419Z,9.17
2019-04-28T20:27:19.621Z,8.93
2019-04-28T20:29:46.671Z,9.87
2019-04-28T20:32:13.732Z,9.37
2019-04-28T20:34:40.805Z,9.57
2019-04-28T20:37:14.845Z,9.47
2019-04-28T20:39:44.969Z,9.30
2019-04-28T20:42:30.257Z,9.37
2019-04-28T20:44:57.324Z,10.57
2019-04-28T20:47:24.396Z,9.50
2019-04-28T20:49:51.456Z,9.37
2019-04-28T20:52:18.787Z,10.27
2019-04-28T20:54:45.892Z,8.83
2019-04-28T20:57:12.956Z,9.43
2019-04-28T20:59:40.022Z,9.57
2019-04-28T21:02:07.345Z,10.37
2019-04-28T21:04:34.437Z,10.07
2019-04-28T21:07:01.744Z,9.53
2019-04-28T21:09:28.816Z,9.60
2019-04-28T21:11:55.897Z,9.60
2019-04-28T21:14:23.238Z,9.30
2019-04-28T21:16:50.377Z,10.30
2019-04-28T21:19:17.435Z,10.20
2019-04-28T21:21:44.528Z,10.30
2019-04-28T21:24:11.825Z,10.97
2019-04-28T21:26:38.876Z,10.27
2019-04-28T21:29:05.948Z,10.20
2019-04-28T21:31:33.045Z,10.60
2019-04-28T21:34:00.216Z,10.17
2019-04-28T21:36:27.269Z,9.87
2019-04-28T21:38:54.569Z,9.77
2019-04-28T21:41:21.643Z,9.43
2019-04-28T21:44:11.257Z,10.70
2019-04-28T21:46:43.176Z,9.87
2019-04-28T21:49:28.132Z,10.63
2019-04-28T21:51:55.215Z,10.13
2019-04-28T21:54:22.274Z,11.07
2019-04-28T21:56:49.337Z,10.87
2019-04-28T21:59:16.397Z,11.03
2019-04-28T22:01:44.558Z,11.03
2019-04-28T22:04:11.707Z,11.40
2019-04-28T22:06:38.769Z,10.90
2019-04-28T22:09:06.396Z,11.40
2019-04-28T22:11:35.599Z,11.70
2019-04-28T22:14:02.988Z,11.67
2019-04-28T22:16:30.093Z,10.93
2019-04-28T22:18:57.362Z,11.23
2019-04-28T22:21:24.420Z,10.37
2019-04-28T22:23:58.524Z,10.10
2019-04-28T22:27:03.230Z,11.87
2019-04-28T22:29:30.286Z,11.87
2019-04-28T22:31:57.352Z,11.63
2019-04-28T22:34:24.431Z,12.03
2019-04-28T22:36:51.612Z,12.07
2019-04-28T22:39:18.783Z,12.27
2019-04-28T22:41:46.068Z,12.43
2019-04-28T22:44:13.333Z,12.17
2019-04-28T22:46:40.500Z,11.93
2019-04-28T22:49:07.564Z,11.70
2019-04-28T22:51:34.851Z,11.47
2019-04-28T22:54:08.368Z,12.23
2019-04-28T22:56:39.011Z,12.07
2019-04-28T22:59:13.323Z,11.40
2019-04-28T23:01:43.801Z,12.13
2019-04-28T23:04:19.994Z,11.73
2019-04-28T23:06:47.147Z,11.03
2019-04-28T23:09:16.516Z,12.53
2019-04-28T23:11:43.849Z,12.60
2019-04-28T23:14:10.907Z,11.43
2019-04-28T23:16:38.085Z,11.60
2019-04-28T23:19:07.549Z,11.63
2019-04-28T23:21:44.731Z,13.57
2019-04-28T23:24:11.892Z,12.63
2019-04-28T23:26:39.153Z,12.30
2019-04-28T23:29:06.300Z,12.73
2019-04-28T23:31:33.444Z,12.43
2019-04-28T23:34:00.553Z,12.63
2019-04-28T23:36:27.853Z,13.53
2019-04-28T23:38:55.016Z,13.50
2019-04-28T23:41:34.079Z,11.90
2019-04-28T23:44:01.158Z,12.73
2019-04-28T23:46:50.600Z,11.80
2019-04-28T23:49:17.647Z,12.20
2019-04-28T23:51:57.373Z,12.50
2019-04-28T23:54:24.447Z,13.63
2019-04-28T23:56:51.508Z,14.50
2019-04-28T23:59:18.587Z,13.63
